Time;durP1;ratioP1;P1;durP2;ratioP2;P2;SDS_P1;SDS_P2;PMS_P1;PMS_P2;Temp;Humidity;BMP_temperature;BMP_pressure;BME280_temperature;BME280_humidity;BME280_pressure;Samples;Min_cycle;Max_cycle;Signal;HPM_P1;HPM_P2
2023/01/26 00:01:21;;;;;;;93.93;24.17;;;0.10;99.90;;;;;;5107846;27;20047;-67
2023/01/26 00:03:47;;;;;;;79.63;22.23;;;0.20;99.90;;;;;;5103982;27;20039;-67
2023/01/26 00:06:15;;;;;;;78.03;21.88;;;0.10;99.90;;;;;;5105600;27;20064;-67
2023/01/26 00:08:43;;;;;;;80.75;23.23;;;0.10;99.90;;;;;;5102037;27;20035;-68
2023/01/26 00:11:11;;;;;;;73.80;22.23;;;0.10;99.90;;;;;;5121568;27;20031;-68
2023/01/26 00:13:37;;;;;;;89.07;23.55;;;0.10;99.90;;;;;;5103090;28;20035;-67
2023/01/26 00:16:06;;;;;;;82.07;22.85;;;0.10;99.90;;;;;;5122918;27;20050;-68
2023/01/26 00:18:32;;;;;;;73.90;22.40;;;0.20;99.90;;;;;;5111597;27;20035;-67
2023/01/26 00:20:59;;;;;;;72.53;22.38;;;0.20;99.90;;;;;;5109028;27;20043;-68
2023/01/26 00:23:25;;;;;;;80.32;22.73;;;0.20;99.90;;;;;;5108393;27;20073;-68
2023/01/26 00:25:51;;;;;;;80.50;23.08;;;0.20;99.90;;;;;;5114207;27;20031;-67
2023/01/26 00:28:17;;;;;;;78.00;23.13;;;0.20;99.90;;;;;;5093173;27;20038;-67
2023/01/26 00:30:42;;;;;;;83.18;23.15;;;0.20;99.90;;;;;;5119708;27;20035;-67
2023/01/26 00:33:08;;;;;;;76.90;22.67;;;0.30;99.90;;;;;;5125005;27;20125;-67
2023/01/26 00:36:06;;;;;;;77.25;22.98;;;0.20;99.90;;;;;;5107895;27;20042;-67
2023/01/26 00:38:31;;;;;;;83.22;24.23;;;0.20;99.90;;;;;;5116082;27;20564;-67
2023/01/26 00:40:57;;;;;;;78.13;22.77;;;0.20;99.90;;;;;;5115602;27;20122;-66
2023/01/26 00:43:23;;;;;;;87.50;23.75;;;0.20;99.90;;;;;;5114148;28;20031;-66
2023/01/26 00:45:48;;;;;;;78.97;21.95;;;0.30;99.90;;;;;;5116235;28;20454;-66
2023/01/26 00:48:14;;;;;;;82.53;23.55;;;0.30;99.90;;;;;;5115743;28;20043;-66
2023/01/26 00:50:40;;;;;;;100.18;25.05;;;0.20;99.90;;;;;;5115927;28;20528;-66
2023/01/26 00:53:06;;;;;;;104.95;25.60;;;0.30;99.90;;;;;;5131399;28;20035;-66
2023/01/26 00:55:31;;;;;;;92.55;24.48;;;0.20;99.90;;;;;;5117272;28;20491;-66
2023/01/26 00:58:02;;;;;;;83.57;22.85;;;0.30;99.90;;;;;;5114151;28;20546;-66
2023/01/26 01:00:28;;;;;;;77.85;22.85;;;0.20;99.90;;;;;;5095050;28;20036;-66
2023/01/26 01:02:57;;;;;;;83.53;22.52;;;0.30;99.90;;;;;;5102377;28;20061;-66
2023/01/26 01:05:25;;;;;;;80.40;22.85;;;0.30;99.90;;;;;;5110954;28;20044;-66
2023/01/26 01:07:51;;;;;;;78.75;21.63;;;0.20;99.90;;;;;;5109466;27;20066;-66
2023/01/26 01:10:17;;;;;;;74.45;21.83;;;0.30;99.90;;;;;;5114141;27;20529;-66
2023/01/26 01:12:43;;;;;;;74.68;21.58;;;0.20;99.90;;;;;;5131931;27;20140;-66
2023/01/26 01:15:09;;;;;;;78.68;21.88;;;0.20;99.90;;;;;;5111814;27;20122;-66
2023/01/26 01:17:37;;;;;;;83.90;23.23;;;0.40;99.90;;;;;;5097947;27;20378;-66
2023/01/26 01:20:06;;;;;;;81.78;21.40;;;0.40;99.90;;;;;;5107256;27;20387;-66
2023/01/26 01:22:33;;;;;;;75.90;21.25;;;0.40;99.90;;;;;;5123352;27;20130;-66
2023/01/26 01:24:59;;;;;;;69.13;20.58;;;0.30;99.90;;;;;;5107538;27;20450;-66
2023/01/26 01:27:24;;;;;;;66.80;19.77;;;0.30;99.90;;;;;;5107114;27;20118;-66
2023/01/26 01:29:50;;;;;;;65.30;19.58;;;0.40;99.90;;;;;;5107144;27;20054;-66
2023/01/26 01:32:16;;;;;;;67.63;21.38;;;0.40;99.90;;;;;;5122038;27;20039;-66
2023/01/26 01:34:42;;;;;;;68.72;20.13;;;0.30;99.90;;;;;;5106990;27;20031;-66
2023/01/26 01:37:08;;;;;;;78.38;22.40;;;0.40;99.90;;;;;;5115540;27;20486;-66
2023/01/26 01:39:33;;;;;;;66.18;21.10;;;0.40;99.90;;;;;;5111194;27;20035;-66
2023/01/26 01:41:59;;;;;;;63.00;20.10;;;0.40;99.90;;;;;;5131758;27;20042;-66
2023/01/26 01:44:25;;;;;;;67.35;19.95;;;0.30;99.90;;;;;;5110355;27;20039;-66
2023/01/26 01:47:18;;;;;;;68.60;20.80;;;0.40;99.90;;;;;;5114282;27;20482;-66
2023/01/26 01:49:47;;;;;;;76.75;22.20;;;0.40;99.90;;;;;;5111741;27;20031;-66
2023/01/26 01:52:24;;;;;;;69.75;20.25;;;0.40;99.90;;;;;;5114047;27;20042;-66
2023/01/26 01:54:56;;;;;;;73.82;19.92;;;0.40;99.90;;;;;;5111073;27;20450;-66
2023/01/26 01:57:30;;;;;;;76.83;20.77;;;0.40;99.90;;;;;;5114252;27;20031;-66
2023/01/26 02:00:06;;;;;;;70.57;20.88;;;0.40;99.90;;;;;;5111917;27;20043;-66
2023/01/26 02:02:34;;;;;;;73.15;20.02;;;0.40;99.90;;;;;;5095646;27;20374;-66
2023/01/26 02:05:12;;;;;;;65.68;18.85;;;0.40;99.90;;;;;;5124375;27;20383;-66
2023/01/26 02:07:38;;;;;;;66.32;19.30;;;0.50;99.90;;;;;;5110871;27;20067;-66
2023/01/26 02:10:20;;;;;;;73.40;19.80;;;0.40;99.90;;;;;;5114540;27;20115;-66
2023/01/26 02:12:48;;;;;;;74.90;21.13;;;0.40;99.90;;;;;;5112934;27;20049;-66
2023/01/26 02:15:14;;;;;;;74.32;20.30;;;0.40;99.90;;;;;;5123344;27;20401;-66
2023/01/26 02:17:40;;;;;;;76.40;20.65;;;0.30;99.90;;;;;;5111932;27;20040;-66
2023/01/26 02:20:28;;;;;;;84.88;21.70;;;0.50;99.90;;;;;;5104472;27;20116;-65
2023/01/26 02:23:08;;;;;;;72.07;19.88;;;0.40;99.90;;;;;;5111366;28;20047;-65
2023/01/26 02:25:52;;;;;;;79.72;20.50;;;0.50;99.90;;;;;;5114074;27;20084;-66
2023/01/26 02:28:22;;;;;;;81.80;20.30;;;0.40;99.90;;;;;;5123421;27;20035;-66
2023/01/26 02:30:47;;;;;;;82.65;21.02;;;0.40;99.90;;;;;;5131565;27;20118;-66
2023/01/26 02:33:22;;;;;;;79.10;21.33;;;0.50;99.90;;;;;;5113038;27;20461;-67
2023/01/26 02:35:47;;;;;;;85.80;21.35;;;0.40;99.90;;;;;;5109002;27;20083;-67
2023/01/26 02:38:13;;;;;;;84.13;22.92;;;0.40;99.90;;;;;;5105223;28;20039;-67
2023/01/26 02:40:52;;;;;;;97.05;22.10;;;0.50;99.90;;;;;;5114680;27;20039;-67
2023/01/26 02:43:18;;;;;;;94.78;22.52;;;0.50;99.90;;;;;;5112476;27;20065;-67
2023/01/26 02:45:44;;;;;;;83.88;21.27;;;0.30;99.90;;;;;;5117271;27;20046;-67
2023/01/26 02:48:09;;;;;;;105.88;24.38;;;0.40;99.90;;;;;;5117660;27;20061;-67
2023/01/26 02:50:35;;;;;;;92.20;21.33;;;0.40;99.90;;;;;;5117995;27;20075;-67
2023/01/26 02:53:01;;;;;;;114.43;23.10;;;0.30;99.90;;;;;;5117778;27;20039;-68
2023/01/26 02:55:47;;;;;;;87.65;21.27;;;0.30;99.90;;;;;;5118088;27;20125;-68
2023/01/26 02:58:12;;;;;;;88.15;21.25;;;0.40;99.90;;;;;;5118047;27;20046;-68
2023/01/26 03:00:40;;;;;;;104.97;22.05;;;0.40;99.90;;;;;;5117925;27;20035;-67
2023/01/26 03:03:24;;;;;;;97.63;22.80;;;0.40;99.90;;;;;;5117619;27;20035;-67
2023/01/26 03:05:51;;;;;;;104.68;23.77;;;0.40;99.90;;;;;;5118015;27;20549;-67
2023/01/26 03:08:17;;;;;;;97.22;23.48;;;0.40;99.90;;;;;;5117714;27;20047;-67
2023/01/26 03:10:43;;;;;;;100.80;24.50;;;0.30;99.90;;;;;;5116576;27;20058;-67
2023/01/26 03:13:08;;;;;;;103.10;25.38;;;0.30;99.90;;;;;;5113620;27;20039;-66
2023/01/26 03:15:41;;;;;;;114.63;25.40;;;0.40;99.90;;;;;;5111125;27;20046;-66
2023/01/26 03:29:18;;;;;;;116.32;26.17;;;0.50;99.90;;;;;;5101210;27;20108;-65
2023/01/26 03:31:44;;;;;;;105.38;24.83;;;0.50;99.90;;;;;;5108637;27;20042;-66
2023/01/26 03:34:10;;;;;;;122.03;25.70;;;0.50;99.90;;;;;;5108279;27;20039;-66
2023/01/26 03:36:36;;;;;;;108.85;25.58;;;0.50;99.90;;;;;;5123348;27;20125;-66
2023/01/26 03:39:03;;;;;;;100.88;24.48;;;0.30;99.90;;;;;;5101880;27;20213;-66
2023/01/26 03:57:53;;;;;;;119.80;24.35;;;0.50;99.90;;;;;;5108814;27;20058;-67
2023/01/26 04:00:20;;;;;;;113.13;23.70;;;0.50;99.90;;;;;;5104135;27;20043;-67
2023/01/26 04:08:21;;;;;;;110.20;24.10;;;0.30;99.90;;;;;;5104219;27;20087;-67
2023/01/26 04:10:47;;;;;;;;;;;0.50;99.90;;;;;;5102916;28;20568;-67
2023/01/26 04:21:25;;;;;;;104.43;22.30;;;0.50;99.90;;;;;;5102708;27;20404;-67
2023/01/26 04:23:56;;;;;;;110.32;23.02;;;0.50;99.90;;;;;;5104943;27;20035;-68
2023/01/26 04:26:23;;;;;;;103.47;22.50;;;0.40;99.90;;;;;;5099124;27;20434;-68
2023/01/26 04:28:48;;;;;;;124.05;23.10;;;0.60;99.90;;;;;;5101827;28;20038;-68
2023/01/26 04:31:15;;;;;;;101.03;22.00;;;0.40;99.90;;;;;;5102411;27;20489;-67
2023/01/26 04:33:41;;;;;;;102.90;22.02;;;0.50;99.90;;;;;;5106684;27;20035;-68
2023/01/26 04:36:08;;;;;;;96.20;21.90;;;0.40;99.90;;;;;;5102455;27;20053;-68
2023/01/26 04:38:34;;;;;;;93.13;22.00;;;0.60;99.90;;;;;;5104803;27;20031;-67
2023/01/26 04:41:00;;;;;;;110.43;23.65;;;0.50;99.90;;;;;;5104585;27;20039;-67
2023/01/26 04:43:25;;;;;;;87.65;20.05;;;0.60;99.90;;;;;;5104801;27;20031;-68
2023/01/26 04:46:03;;;;;;;91.25;20.77;;;0.40;99.90;;;;;;5102159;28;20048;-68
2023/01/26 04:48:29;;;;;;;88.95;20.45;;;0.60;99.90;;;;;;5100205;28;20118;-68
2023/01/26 04:51:00;;;;;;;83.47;19.85;;;0.60;99.90;;;;;;5104623;28;20043;-68
2023/01/26 04:53:26;;;;;;;98.78;21.67;;;0.60;99.90;;;;;;5100889;27;20050;-68
2023/01/26 04:55:52;;;;;;;113.55;22.50;;;0.50;99.90;;;;;;5103673;28;20042;-68
2023/01/26 04:58:17;;;;;;;91.13;21.13;;;0.60;99.90;;;;;;5103710;28;20421;-68
2023/01/26 05:00:43;;;;;;;70.53;19.42;;;0.60;99.90;;;;;;5103583;28;20470;-68
2023/01/26 05:03:09;;;;;;;86.82;20.23;;;0.70;99.90;;;;;;5117692;27;20087;-68
2023/01/26 05:05:38;;;;;;;75.95;19.30;;;0.60;99.90;;;;;;5104025;27;20166;-68
2023/01/26 05:08:05;;;;;;;81.70;19.23;;;0.50;99.90;;;;;;5103517;28;20043;-68
2023/01/26 05:10:31;;;;;;;102.93;21.27;;;0.60;99.90;;;;;;5105172;28;20073;-68
2023/01/26 05:12:57;;;;;;;92.68;20.65;;;0.70;99.90;;;;;;5101919;28;20064;-68
2023/01/26 05:15:22;;;;;;;79.32;19.77;;;0.60;99.90;;;;;;5103353;28;20027;-68
2023/01/26 05:17:48;;;;;;;72.53;19.08;;;0.70;99.90;;;;;;5102971;28;20177;-69
2023/01/26 05:20:14;;;;;;;82.78;19.77;;;0.70;99.90;;;;;;5118524;28;20039;-69
2023/01/26 05:22:40;;;;;;;68.30;20.08;;;0.70;99.90;;;;;;5101010;28;20054;-68
2023/01/26 05:25:05;;;;;;;113.75;22.73;;;0.60;99.90;;;;;;5103623;28;20054;-69
2023/01/26 05:27:31;;;;;;;95.88;21.27;;;0.70;99.90;;;;;;5105771;28;20481;-68
2023/01/26 05:29:59;;;;;;;111.35;23.05;;;0.70;99.90;;;;;;5104107;28;20044;-68
2023/01/26 05:32:29;;;;;;;135.20;24.48;;;0.60;99.90;;;;;;5100589;28;20043;-70
2023/01/26 05:34:55;;;;;;;103.80;21.77;;;0.70;99.90;;;;;;5104067;28;20062;-69
2023/01/26 05:37:24;;;;;;;114.70;23.48;;;0.80;99.90;;;;;;5101915;28;20035;-69
2023/01/26 05:39:49;;;;;;;126.32;23.25;;;0.80;99.90;;;;;;5098303;28;20039;-69
2023/01/26 05:42:15;;;;;;;122.57;24.92;;;0.70;99.90;;;;;;5121329;27;20039;-69
2023/01/26 05:44:41;;;;;;;108.80;23.50;;;0.80;99.90;;;;;;5105035;28;20043;-69
2023/01/26 05:47:07;;;;;;;118.57;23.80;;;0.70;99.90;;;;;;5101312;28;20468;-69
2023/01/26 05:49:32;;;;;;;141.63;26.35;;;0.60;99.90;;;;;;5103346;28;20043;-69
2023/01/26 05:51:58;;;;;;;112.22;23.17;;;0.70;99.90;;;;;;5097655;28;20046;-69
2023/01/26 05:54:24;;;;;;;116.97;25.20;;;0.70;99.90;;;;;;5109205;27;20039;-69
2023/01/26 05:56:49;;;;;;;108.65;23.63;;;0.80;99.90;;;;;;5086144;27;20085;-69
2023/01/26 05:59:15;;;;;;;99.18;23.10;;;0.80;99.90;;;;;;5123292;27;20038;-69
2023/01/26 06:01:41;;;;;;;94.05;22.83;;;0.80;99.90;;;;;;5104234;27;20095;-69
2023/01/26 06:04:07;;;;;;;94.78;22.50;;;0.70;99.90;;;;;;5108651;27;20553;-68
2023/01/26 06:06:32;;;;;;;80.80;23.05;;;0.70;99.90;;;;;;5110833;27;20491;-69
2023/01/26 06:08:58;;;;;;;129.98;25.20;;;0.80;99.90;;;;;;5122256;27;20070;-69
2023/01/26 06:11:24;;;;;;;121.82;24.25;;;0.80;99.90;;;;;;5090369;27;20394;-69
2023/01/26 06:13:49;;;;;;;94.68;22.55;;;0.70;99.90;;;;;;5106476;27;20046;-69
2023/01/26 06:16:15;;;;;;;111.93;23.77;;;0.80;99.90;;;;;;5107609;27;20073;-69
2023/01/26 06:18:41;;;;;;;105.82;23.85;;;0.90;99.90;;;;;;5104569;27;20044;-69
2023/01/26 06:21:06;;;;;;;118.13;23.52;;;0.80;99.90;;;;;;5102785;27;20039;-69
2023/01/26 06:23:32;;;;;;;256.33;29.98;;;0.90;99.90;;;;;;5107788;27;20122;-69
2023/01/26 06:25:59;;;;;;;211.48;28.80;;;0.70;99.90;;;;;;5104875;27;20039;-69
2023/01/26 06:28:25;;;;;;;249.02;33.15;;;0.80;99.90;;;;;;5102537;27;20116;-69
2023/01/26 06:30:50;;;;;;;212.93;30.92;;;0.80;99.90;;;;;;5108637;27;20364;-69
2023/01/26 06:33:16;;;;;;;245.00;32.97;;;0.90;99.90;;;;;;5108947;27;20850;-69
2023/01/26 06:35:41;;;;;;;209.40;33.47;;;0.90;99.90;;;;;;5105416;27;20043;-69
2023/01/26 06:38:07;;;;;;;236.50;33.05;;;0.80;99.90;;;;;;5111727;27;20035;-69
2023/01/26 06:40:33;;;;;;;135.52;27.70;;;0.80;99.90;;;;;;5107425;27;20125;-69
2023/01/26 06:42:58;;;;;;;179.43;30.48;;;0.70;99.90;;;;;;5104203;27;20595;-68
2023/01/26 06:45:24;;;;;;;219.55;31.85;;;0.70;99.90;;;;;;5105676;27;20039;-70
2023/01/26 06:47:50;;;;;;;123.05;26.13;;;0.90;99.90;;;;;;5118790;27;20035;-70
2023/01/26 06:50:19;;;;;;;201.27;32.53;;;0.80;99.90;;;;;;5105993;27;20385;-70
2023/01/26 06:52:54;;;;;;;216.68;32.30;;;0.80;99.90;;;;;;5124226;27;20058;-70
2023/01/26 06:55:28;;;;;;;251.00;33.50;;;0.70;99.90;;;;;;5106439;27;20047;-70
2023/01/26 06:57:54;;;;;;;181.60;31.25;;;0.80;99.90;;;;;;5107696;27;20108;-71
2023/01/26 07:00:20;;;;;;;273.10;35.28;;;0.80;99.90;;;;;;5107387;27;20047;-71
2023/01/26 07:02:45;;;;;;;230.45;31.13;;;0.80;99.90;;;;;;5103274;27;20044;-71
2023/01/26 07:05:11;;;;;;;258.38;32.03;;;0.80;99.90;;;;;;5107609;27;20030;-70
2023/01/26 07:07:36;;;;;;;263.17;35.80;;;0.90;99.90;;;;;;5085204;27;20035;-71
2023/01/26 07:10:05;;;;;;;197.10;30.38;;;0.80;99.90;;;;;;5087724;27;20125;-71
2023/01/26 07:12:42;;;;;;;190.80;30.75;;;0.90;99.90;;;;;;5103038;27;21353;-71
2023/01/26 07:15:10;;;;;;;263.38;33.90;;;0.90;99.90;;;;;;5108799;27;20118;-70
2023/01/26 07:17:37;;;;;;;262.67;33.60;;;0.90;99.90;;;;;;5102920;27;20044;-71
2023/01/26 07:20:03;;;;;;;206.73;31.58;;;0.80;99.90;;;;;;5101446;27;20035;-71
2023/01/26 07:22:28;;;;;;;247.32;36.55;;;0.80;99.90;;;;;;5101665;27;20096;-71
2023/01/26 07:24:54;;;;;;;276.73;35.60;;;0.80;99.90;;;;;;5099961;27;20122;-71
2023/01/26 07:27:19;;;;;;;281.20;33.10;;;1.00;99.90;;;;;;5094303;27;20044;-71
2023/01/26 07:29:45;;;;;;;259.30;32.33;;;0.80;99.90;;;;;;5106434;27;20387;-70
2023/01/26 07:32:11;;;;;;;254.82;35.20;;;0.90;99.90;;;;;;5102640;27;20053;-70
2023/01/26 07:34:37;;;;;;;276.70;35.47;;;0.80;99.90;;;;;;5107917;27;20126;-70
2023/01/26 07:37:04;;;;;;;265.30;33.92;;;0.90;99.90;;;;;;5103268;27;20460;-70
2023/01/26 07:39:29;;;;;;;303.95;36.15;;;1.00;99.90;;;;;;5106567;27;20043;-70
2023/01/26 07:41:55;;;;;;;323.42;34.70;;;0.90;99.90;;;;;;5102711;27;20613;-70
2023/01/26 07:44:21;;;;;;;297.90;37.05;;;0.90;99.90;;;;;;5104787;27;20034;-70
2023/01/26 07:46:46;;;;;;;321.13;35.17;;;1.00;99.90;;;;;;5104228;27;20392;-70
2023/01/26 07:49:12;;;;;;;342.83;38.33;;;0.90;99.90;;;;;;5100439;27;20039;-69
2023/01/26 07:51:38;;;;;;;320.63;35.70;;;0.90;99.90;;;;;;5104485;27;20134;-69
2023/01/26 07:54:04;;;;;;;339.58;35.83;;;0.80;99.90;;;;;;5105511;27;20040;-69
2023/01/26 07:56:30;;;;;;;334.90;37.67;;;0.90;99.90;;;;;;5106308;27;20038;-69
2023/01/26 07:58:56;;;;;;;213.63;32.65;;;0.80;99.90;;;;;;5101041;27;20039;-68
2023/01/26 08:01:22;;;;;;;394.88;37.45;;;1.00;99.90;;;;;;5106318;27;20190;-69
2023/01/26 08:03:52;;;;;;;312.95;33.85;;;0.90;99.90;;;;;;5104481;27;20031;-68
2023/01/26 08:06:19;;;;;;;245.25;31.92;;;1.00;99.90;;;;;;5106776;27;20046;-68
2023/01/26 08:08:49;;;;;;;190.30;29.58;;;0.80;99.90;;;;;;5101706;27;20043;-68
2023/01/26 08:11:18;;;;;;;180.57;28.75;;;0.90;99.90;;;;;;5089335;27;20054;-68
2023/01/26 08:13:43;;;;;;;156.20;28.23;;;0.90;99.90;;;;;;5105358;27;20035;-68
2023/01/26 08:16:13;;;;;;;177.20;27.45;;;0.70;99.90;;;;;;5105230;27;20080;-67
2023/01/26 08:18:40;;;;;;;167.25;28.67;;;0.80;99.90;;;;;;5106820;27;20031;-67
2023/01/26 08:21:07;;;;;;;205.45;28.80;;;0.80;99.90;;;;;;5105848;27;20472;-68
2023/01/26 08:23:32;;;;;;;234.43;30.98;;;0.80;99.90;;;;;;5121937;27;20509;-68
2023/01/26 08:26:03;;;;;;;233.82;30.35;;;0.80;99.90;;;;;;5106333;27;20038;-67
2023/01/26 08:28:29;;;;;;;119.85;24.38;;;0.80;99.90;;;;;;5119124;27;20031;-68
2023/01/26 08:30:55;;;;;;;155.57;26.90;;;1.00;99.90;;;;;;5109244;27;20542;-68
2023/01/26 08:33:21;;;;;;;142.63;25.75;;;0.90;99.90;;;;;;5095900;27;20075;-68
2023/01/26 08:35:46;;;;;;;136.52;25.83;;;1.00;99.90;;;;;;5105438;27;20035;-68
2023/01/26 08:38:12;;;;;;;128.80;24.63;;;1.10;99.90;;;;;;5098787;27;20451;-68
2023/01/26 08:40:37;;;;;;;113.15;23.95;;;1.00;99.90;;;;;;5102308;27;20035;-68
2023/01/26 08:43:03;;;;;;;114.88;24.05;;;1.10;99.90;;;;;;5099196;27;20058;-68
2023/01/26 08:45:29;;;;;;;125.88;30.30;;;1.10;99.90;;;;;;5102044;27;20508;-67
2023/01/26 08:47:55;;;;;;;103.63;21.42;;;1.00;99.90;;;;;;5099794;27;20067;-68
2023/01/26 08:50:20;;;;;;;121.10;23.63;;;1.10;99.90;;;;;;5104833;27;20058;-68
2023/01/26 08:52:46;;;;;;;109.53;21.38;;;1.20;99.90;;;;;;5101774;27;20078;-68
2023/01/26 08:55:12;;;;;;;103.43;23.05;;;1.40;99.90;;;;;;5100504;28;20513;-68
2023/01/26 08:57:38;;;;;;;94.93;21.05;;;1.30;99.90;;;;;;5084021;27;20387;-68
2023/01/26 09:00:04;;;;;;;108.72;20.95;;;1.50;99.90;;;;;;5095339;28;20088;-68
2023/01/26 09:02:29;;;;;;;94.75;21.20;;;1.40;99.90;;;;;;5102652;27;20044;-67
2023/01/26 09:04:55;;;;;;;70.50;17.60;;;1.50;99.90;;;;;;5103907;28;20039;-67
2023/01/26 09:07:20;;;;;;;92.80;18.33;;;1.60;99.90;;;;;;5106283;28;20087;-67
2023/01/26 09:09:46;;;;;;;83.32;17.38;;;1.60;99.90;;;;;;5103680;28;20565;-66
2023/01/26 09:12:12;;;;;;;64.70;15.73;;;1.60;99.90;;;;;;5104140;28;20031;-66
2023/01/26 09:14:37;;;;;;;69.35;15.85;;;1.70;99.90;;;;;;5104755;28;20424;-67
2023/01/26 09:17:03;;;;;;;69.35;15.82;;;1.90;99.90;;;;;;5103292;28;20134;-67
2023/01/26 09:19:28;;;;;;;73.15;16.67;;;1.80;99.90;;;;;;5084966;28;20050;-68
2023/01/26 09:21:54;;;;;;;45.58;11.52;;;1.90;99.90;;;;;;5104133;28;20071;-67
2023/01/26 09:24:20;;;;;;;53.55;12.88;;;1.90;99.90;;;;;;5102547;28;20482;-67
2023/01/26 09:26:46;;;;;;;45.40;10.98;;;2.20;99.90;;;;;;5102610;28;20039;-67
2023/01/26 09:29:11;;;;;;;45.30;9.70;;;2.20;99.90;;;;;;5108191;27;20082;-68
2023/01/26 09:31:38;;;;;;;53.75;13.52;;;2.40;99.90;;;;;;5106590;27;20041;-66
2023/01/26 09:34:03;;;;;;;31.20;8.60;;;2.50;99.90;;;;;;5089275;27;20484;-66
2023/01/26 09:36:29;;;;;;;45.10;10.05;;;2.70;99.90;;;;;;5109913;27;20078;-67
2023/01/26 09:38:54;;;;;;;49.25;11.13;;;2.60;99.90;;;;;;5108141;27;20469;-69
2023/01/26 09:41:56;;;;;;;38.92;8.50;;;2.80;99.90;;;;;;5117817;27;20039;-68
2023/01/26 09:44:27;;;;;;;52.92;10.93;;;3.10;99.90;;;;;;5111878;28;20035;-66
2023/01/26 09:47:01;;;;;;;40.35;9.10;;;3.30;99.90;;;;;;5110975;27;20034;-67
2023/01/26 09:49:29;;;;;;;34.72;7.35;;;3.30;99.90;;;;;;5104665;27;20066;-66
2023/01/26 09:52:18;;;;;;;32.70;6.03;;;3.50;99.90;;;;;;5112430;27;20039;-66
2023/01/26 09:54:49;;;;;;;43.53;8.70;;;3.60;99.90;;;;;;5101531;27;20042;-68
2023/01/26 09:57:17;;;;;;;36.85;7.65;;;3.70;99.90;;;;;;5112373;27;20043;-67
2023/01/26 09:59:59;;;;;;;35.72;5.95;;;3.90;99.90;;;;;;5107404;27;20039;-70
2023/01/26 10:02:43;;;;;;;37.63;6.47;;;4.00;99.90;;;;;;5111327;27;20043;-68
2023/01/26 10:05:29;;;;;;;40.45;5.90;;;4.10;99.90;;;;;;5108914;27;20046;-67
2023/01/26 10:07:54;;;;;;;36.20;5.75;;;4.20;99.90;;;;;;5108919;27;20100;-69
2023/01/26 10:10:28;;;;;;;44.88;7.72;;;4.30;99.90;;;;;;5110415;27;20047;-70
2023/01/26 10:12:55;;;;;;;49.17;7.97;;;4.60;99.90;;;;;;5113590;27;20122;-70
2023/01/26 10:15:31;;;;;;;40.97;6.70;;;4.60;99.90;;;;;;5110288;27;20039;-70
2023/01/26 10:18:03;;;;;;;28.95;6.40;;;4.60;99.90;;;;;;5124184;27;20032;-70
2023/01/26 10:20:38;;;;;;;38.10;6.60;;;4.90;99.90;;;;;;5112751;27;20391;-70
2023/01/26 10:23:15;;;;;;;40.85;6.88;;;5.00;99.90;;;;;;5106983;27;20031;-71
2023/01/26 10:25:43;;;;;;;53.58;6.50;;;5.20;99.90;;;;;;5106730;28;20559;-71
2023/01/26 10:28:24;;;;;;;34.33;5.03;;;5.10;99.90;;;;;;5108634;27;20035;-71
2023/01/26 10:30:51;;;;;;;38.15;6.30;;;5.30;99.90;;;;;;5114604;27;20051;-70
2023/01/26 10:33:31;;;;;;;36.58;5.25;;;5.40;99.90;;;;;;5108521;27;20548;-70
2023/01/26 10:35:57;;;;;;;40.72;5.68;;;5.70;99.90;;;;;;5114562;27;20074;-72
2023/01/26 10:38:32;;;;;;;47.88;5.53;;;5.80;99.90;;;;;;5110068;27;20115;-71
2023/01/26 10:41:04;;;;;;;44.15;5.38;;;5.90;99.90;;;;;;5110101;27;20468;-70
2023/01/26 10:43:40;;;;;;;25.63;3.83;;;6.00;99.90;;;;;;5100356;27;20039;-73
2023/01/26 10:46:05;;;;;;;34.60;4.10;;;6.00;99.90;;;;;;5111678;27;20083;-73
2023/01/26 10:48:31;;;;;;;35.80;5.28;;;6.20;99.90;;;;;;5094744;27;20485;-72
2023/01/26 10:51:18;;;;;;;42.15;4.60;;;6.20;99.90;;;;;;5130679;27;20056;-72
2023/01/26 10:53:43;;;;;;;33.58;4.10;;;6.40;99.90;;;;;;5106081;27;20074;-70
2023/01/26 10:56:15;;;;;;;21.42;3.33;;;6.50;99.90;;;;;;5113999;27;20077;-72
2023/01/26 10:58:51;;;;;;;36.45;4.50;;;6.50;99.90;;;;;;5105513;27;20066;-73
2023/01/26 11:01:21;;;;;;;22.75;3.25;;;6.80;99.90;;;;;;5091982;27;20125;-73
2023/01/26 11:04:14;;;;;;;33.85;4.32;;;6.90;99.90;;;;;;5100968;27;20430;-73
2023/01/26 11:06:39;;;;;;;43.65;4.68;;;6.80;99.90;;;;;;5108021;27;20031;-72
2023/01/26 11:09:19;;;;;;;32.45;4.20;;;7.00;99.90;;;;;;5107327;27;20042;-72
2023/01/26 11:12:07;;;;;;;37.63;4.00;;;7.10;99.90;;;;;;5092849;27;20756;-71
2023/01/26 11:14:33;;;;;;;29.48;3.08;;;7.10;99.90;;;;;;5105718;27;20378;-73
2023/01/26 11:17:12;;;;;;;27.85;3.45;;;7.10;99.90;;;;;;5108922;27;20552;-72
2023/01/26 11:20:06;;;;;;;35.65;3.50;;;7.20;99.90;;;;;;5099242;27;20031;-68
2023/01/26 11:22:51;;;;;;;28.92;3.33;;;7.20;99.90;;;;;;5098578;27;20093;-72
2023/01/26 11:25:24;;;;;;;31.27;3.65;;;7.40;99.90;;;;;;5108300;27;20049;-70
2023/01/26 11:28:03;;;;;;;27.00;3.63;;;7.50;99.90;;;;;;5110909;27;20039;-72
2023/01/26 11:30:47;;;;;;;24.92;2.85;;;7.50;99.90;;;;;;5111384;27;20035;-72
2023/01/26 11:33:21;;;;;;;18.17;3.20;;;7.50;99.90;;;;;;5106060;27;20102;-72
2023/01/26 11:35:56;;;;;;;20.08;2.40;;;7.60;99.90;;;;;;5103915;27;20459;-74
2023/01/26 11:38:24;;;;;;;23.35;3.10;;;7.50;99.90;;;;;;5107509;27;20035;-72
2023/01/26 11:41:23;;;;;;;29.05;3.83;;;7.50;99.90;;;;;;5108047;27;20039;-70
2023/01/26 11:43:49;;;;;;;32.47;4.70;;;7.70;99.90;;;;;;5106115;27;20263;-69
2023/01/26 11:46:20;;;;;;;24.73;3.13;;;7.70;99.90;;;;;;5126076;27;20034;-71
2023/01/26 11:48:46;;;;;;;30.73;4.03;;;7.80;99.90;;;;;;5107824;27;20385;-71
2023/01/26 11:51:34;;;;;;;24.45;3.42;;;7.80;99.90;;;;;;5106319;27;20031;-70
2023/01/26 11:54:22;;;;;;;18.95;2.75;;;7.90;99.90;;;;;;5105770;27;20047;-72
2023/01/26 11:56:52;;;;;;;22.25;3.50;;;8.00;99.90;;;;;;5109352;27;20038;-71
2023/01/26 11:59:23;;;;;;;24.48;2.65;;;8.00;99.90;;;;;;5111386;27;20038;-70
2023/01/26 12:02:13;;;;;;;20.85;2.67;;;8.00;99.90;;;;;;5111160;27;20046;-72
2023/01/26 12:04:45;;;;;;;25.00;2.72;;;8.10;99.90;;;;;;5105883;27;20477;-70
2023/01/26 12:07:11;;;;;;;9.15;1.17;;;8.10;99.90;;;;;;5106847;27;20047;-68
2023/01/26 12:09:42;;;;;;;26.20;2.60;;;8.10;99.90;;;;;;5107754;27;20562;-69
2023/01/26 12:12:23;;;;;;;22.80;2.38;;;8.00;99.90;;;;;;5107145;27;20046;-70
2023/01/26 12:15:00;;;;;;;24.27;3.17;;;8.00;99.90;;;;;;5108074;27;20060;-69
2023/01/26 12:17:37;;;;;;;20.63;2.30;;;8.10;99.90;;;;;;5125513;27;20061;-73
2023/01/26 12:20:38;;;;;;;16.98;2.08;;;8.10;99.90;;;;;;5110723;27;20039;-71
2023/01/26 12:23:05;;;;;;;26.25;2.42;;;8.00;99.90;;;;;;5104520;27;20048;-72
2023/01/26 12:25:40;;;;;;;23.50;3.78;;;7.90;99.90;;;;;;5102674;27;20066;-70
2023/01/26 12:28:42;;;;;;;20.10;2.58;;;8.00;99.90;;;;;;5097002;27;20386;-70
2023/01/26 12:31:19;;;;;;;15.50;2.17;;;8.00;99.90;;;;;;5107458;27;20044;-69
2023/01/26 12:33:48;;;;;;;19.55;2.72;;;8.00;99.90;;;;;;5103260;27;20084;-70
2023/01/26 12:36:19;;;;;;;14.77;2.00;;;8.10;99.90;;;;;;5110587;27;20058;-68
2023/01/26 12:39:07;;;;;;;19.10;2.72;;;8.20;99.90;;;;;;5102986;27;20461;-71
2023/01/26 12:42:08;;;;;;;22.30;2.70;;;8.20;99.90;;;;;;5116519;27;20607;-71
2023/01/26 12:45:00;;;;;;;14.30;1.80;;;8.20;99.90;;;;;;5064259;27;20050;-70
2023/01/26 12:47:41;;;;;;;19.08;2.65;;;8.40;99.90;;;;;;5092369;27;20039;-69
2023/01/26 12:50:34;;;;;;;20.35;1.95;;;8.50;99.90;;;;;;5119552;27;20043;-71
2023/01/26 12:53:31;;;;;;;13.85;1.73;;;8.50;99.90;;;;;;5103622;28;20039;-68
2023/01/26 12:56:22;;;;;;;11.32;1.75;;;8.50;99.90;;;;;;5113563;28;20038;-73
2023/01/26 12:58:50;;;;;;;13.15;2.63;;;8.40;99.90;;;;;;5086816;28;20510;-68
2023/01/26 13:01:19;;;;;;;15.20;2.03;;;8.40;99.90;;;;;;5110391;28;20050;-68
2023/01/26 13:04:05;;;;;;;24.17;2.72;;;8.30;99.90;;;;;;5109275;27;20043;-70
2023/01/26 13:06:31;;;;;;;22.48;2.58;;;8.30;99.90;;;;;;5111590;28;20428;-68
2023/01/26 13:08:56;;;;;;;19.80;2.17;;;8.40;99.90;;;;;;5108256;27;20039;-70
2023/01/26 13:11:57;;;;;;;17.08;2.03;;;8.50;99.90;;;;;;5110465;27;20042;-69
2023/01/26 13:14:22;;;;;;;19.25;2.70;;;8.50;99.90;;;;;;5126892;27;20067;-70
2023/01/26 13:16:48;;;;;;;15.05;1.83;;;8.40;99.90;;;;;;5099121;27;20089;-69
2023/01/26 13:19:42;;;;;;;25.88;2.55;;;8.40;99.90;;;;;;5112662;27;20436;-71
2023/01/26 13:22:17;;;;;;;18.10;3.15;;;8.30;99.90;;;;;;5113753;27;20493;-70
2023/01/26 13:24:55;;;;;;;21.95;2.03;;;8.30;99.90;;;;;;5112753;27;20027;-71
2023/01/26 13:27:31;;;;;;;12.65;2.05;;;8.20;99.90;;;;;;5111327;27;20175;-70
2023/01/26 13:29:57;;;;;;;12.80;1.48;;;8.30;99.90;;;;;;5101356;28;20478;-69
2023/01/26 13:32:23;;;;;;;9.60;1.73;;;8.30;99.90;;;;;;5107101;27;20038;-70